createdAt,value
2023-02-06T00:00:25.072Z,12.03
2023-02-06T00:02:52.906Z,8.27
2023-02-06T00:05:20.245Z,9.27
2023-02-06T00:07:47.074Z,8.07
2023-02-06T00:10:16.338Z,11.10
2023-02-06T00:12:43.176Z,11.83
2023-02-06T00:15:10.213Z,8.20
2023-02-06T00:17:38.415Z,10.80
2023-02-06T00:20:08.127Z,10.00
2023-02-06T00:22:35.783Z,7.80
2023-02-06T00:25:02.875Z,8.97
2023-02-06T00:27:31.306Z,8.23
2023-02-06T00:29:59.019Z,7.63
2023-02-06T00:32:26.167Z,10.60
2023-02-06T00:34:53.007Z,9.17
2023-02-06T00:37:20.311Z,9.50
2023-02-06T00:39:47.318Z,10.60
2023-02-06T00:42:15.192Z,10.50
2023-02-06T00:44:43.491Z,9.33
2023-02-06T00:47:10.770Z,9.03
2023-02-06T00:49:37.823Z,10.13
2023-02-06T00:52:04.984Z,11.37
2023-02-06T00:54:31.864Z,8.50
2023-02-06T00:56:58.933Z,8.80
2023-02-06T00:59:26.606Z,9.87
2023-02-06T01:01:55.157Z,10.83
2023-02-06T01:04:22.092Z,8.27
2023-02-06T01:06:49.209Z,9.23
2023-02-06T01:09:16.562Z,14.13
2023-02-06T01:11:43.522Z,9.63
2023-02-06T01:14:10.647Z,8.83
2023-02-06T01:16:37.548Z,10.47
2023-02-06T01:19:06.027Z,9.80
2023-02-06T01:21:33.250Z,11.70
2023-02-06T01:24:00.688Z,9.33
2023-02-06T01:26:27.725Z,11.13
2023-02-06T01:28:55.849Z,10.13
2023-02-06T01:31:27.815Z,7.50
2023-02-06T01:34:00.345Z,8.27
2023-02-06T01:36:28.887Z,9.70
2023-02-06T01:38:56.996Z,10.30
2023-02-06T01:41:24.525Z,7.17
2023-02-06T01:44:12.936Z,13.47
2023-02-06T01:46:41.697Z,8.60
2023-02-06T01:49:14.103Z,11.90
2023-02-06T01:54:12.061Z,6.53
2023-02-06T01:56:45.508Z,8.23
2023-02-06T01:59:12.889Z,7.17
2023-02-06T02:01:40.775Z,7.63
2023-02-06T02:04:14.570Z,9.27
2023-02-06T02:06:45.523Z,10.43
2023-02-06T02:09:14.087Z,9.47
2023-02-06T02:11:41.451Z,8.13
2023-02-06T02:14:12.780Z,8.50
2023-02-06T02:16:52.128Z,8.52
2023-02-06T02:20:32.842Z,9.50
2023-02-06T02:23:23.800Z,5.40
2023-02-06T02:26:46.915Z,10.33
2023-02-06T02:30:18.897Z,7.33
2023-02-06T02:33:26.762Z,4.77
2023-02-06T02:36:09.741Z,7.23
2023-02-06T02:38:54.047Z,6.70
2023-02-06T02:41:30.424Z,7.97
2023-02-06T02:44:08.692Z,9.83
2023-02-06T02:46:41.200Z,5.93
2023-02-06T02:49:13.920Z,6.07
2023-02-06T02:51:47.324Z,7.50
2023-02-06T02:56:43.662Z,4.93
2023-02-06T02:59:17.359Z,4.50
2023-02-06T03:01:59.277Z,6.97
2023-02-06T03:04:34.203Z,8.33
2023-02-06T03:07:19.636Z,6.47
2023-02-06T03:10:01.195Z,6.07
2023-02-06T03:12:40.080Z,7.63
2023-02-06T03:15:22.324Z,8.17
2023-02-06T03:18:07.304Z,10.60
2023-02-06T03:20:41.842Z,8.37
2023-02-06T03:23:17.210Z,8.47
2023-02-06T03:25:49.154Z,10.10
2023-02-06T03:28:21.718Z,4.80
2023-02-06T03:30:53.761Z,4.77
2023-02-06T03:35:56.513Z,6.78
2023-02-06T03:38:25.674Z,5.37
2023-02-06T03:40:56.560Z,5.57
2023-02-06T03:43:28.119Z,6.13
2023-02-06T03:46:00.970Z,10.00
2023-02-06T03:48:33.529Z,9.47
2023-02-06T03:51:07.010Z,6.03
2023-02-06T03:53:38.431Z,7.87
2023-02-06T03:56:10.741Z,7.28
2023-02-06T03:58:37.882Z,7.53
2023-02-06T04:01:07.128Z,5.13
2023-02-06T04:03:59.841Z,10.77
2023-02-06T04:06:27.188Z,6.37
2023-02-06T04:08:55.642Z,6.60
2023-02-06T04:11:22.686Z,8.57
2023-02-06T04:13:49.711Z,6.57
2023-02-06T04:16:16.545Z,11.23
2023-02-06T04:18:43.931Z,6.77
2023-02-06T04:21:11.322Z,10.63
2023-02-06T04:23:38.463Z,8.07
2023-02-06T04:26:06.933Z,6.43
2023-02-06T04:28:33.906Z,9.27
2023-02-06T04:31:01.463Z,9.40
2023-02-06T04:33:28.554Z,8.90
2023-02-06T04:35:55.392Z,7.20
2023-02-06T04:38:22.417Z,7.40
2023-02-06T04:40:49.659Z,11.93
2023-02-06T04:43:17.930Z,9.50
2023-02-06T04:45:45.360Z,12.47
2023-02-06T04:48:12.209Z,7.57
2023-02-06T04:50:42.110Z,5.17
2023-02-06T04:53:09.262Z,8.40
2023-02-06T04:55:36.498Z,8.33
2023-02-06T04:58:03.848Z,6.47
2023-02-06T05:00:32.306Z,6.87
2023-02-06T05:02:59.762Z,7.53
2023-02-06T05:05:27.064Z,7.87
2023-02-06T05:07:54.067Z,5.17
2023-02-06T05:10:21.361Z,5.50
2023-02-06T05:12:48.617Z,8.03
2023-02-06T05:15:15.482Z,7.20
2023-02-06T05:17:43.863Z,6.20
2023-02-06T05:23:03.614Z,3.97
2023-02-06T05:25:30.685Z,7.07
2023-02-06T05:27:58.563Z,9.40
2023-02-06T05:30:25.518Z,11.47
2023-02-06T05:32:53.815Z,10.20
2023-02-06T05:35:21.382Z,5.53
2023-02-06T05:37:49.576Z,6.07
2023-02-06T05:40:17.211Z,7.27
2023-02-06T05:42:44.051Z,11.47
2023-02-06T05:45:36.924Z,5.55
2023-02-06T05:48:06.063Z,9.37
2023-02-06T05:50:33.385Z,10.63
2023-02-06T05:53:00.728Z,8.40
2023-02-06T05:55:27.910Z,12.67
2023-02-06T05:57:55.145Z,15.37
2023-02-06T06:00:22.508Z,17.40
2023-02-06T06:02:49.482Z,12.90
2023-02-06T06:05:18.172Z,14.53
2023-02-06T06:07:45.128Z,12.33
2023-02-06T06:10:12.390Z,14.50
2023-02-06T06:12:39.491Z,15.77
2023-02-06T06:15:08.000Z,22.53
2023-02-06T06:17:35.059Z,11.60
2023-02-06T06:20:02.004Z,21.40
2023-02-06T06:25:21.626Z,36.45
2023-02-06T06:27:48.648Z,39.43
2023-02-06T06:30:15.678Z,34.70
2023-02-06T06:32:42.701Z,24.57
2023-02-06T06:35:09.958Z,16.80
2023-02-06T06:37:39.910Z,13.40
2023-02-06T06:40:08.148Z,15.63
2023-02-06T06:42:35.194Z,8.40
2023-02-06T06:45:02.776Z,7.80
2023-02-06T06:47:33.973Z,10.52
2023-02-06T06:50:01.061Z,12.47
2023-02-06T06:52:28.035Z,13.47
2023-02-06T06:54:56.375Z,12.13
2023-02-06T06:57:24.743Z,10.70
2023-02-06T06:59:52.674Z,12.63
2023-02-06T07:02:23.285Z,13.70
2023-02-06T07:04:51.007Z,11.73
2023-02-06T07:07:18.107Z,11.43
2023-02-06T07:09:47.712Z,11.03
2023-02-06T07:12:16.293Z,8.83
2023-02-06T07:14:43.654Z,14.83
2023-02-06T07:17:10.661Z,11.67
2023-02-06T07:19:37.645Z,11.23
2023-02-06T07:22:05.510Z,8.23
2023-02-06T07:24:32.606Z,6.03
2023-02-06T07:27:00.033Z,9.50
2023-02-06T07:29:28.365Z,7.83
2023-02-06T07:31:55.464Z,14.20
2023-02-06T07:34:22.429Z,10.47
2023-02-06T07:36:49.256Z,10.77
2023-02-06T07:39:16.623Z,11.27
2023-02-06T07:41:43.571Z,12.90
2023-02-06T07:44:16.820Z,14.03
2023-02-06T07:46:46.192Z,9.47
2023-02-06T07:49:13.818Z,10.90
2023-02-06T07:51:40.951Z,16.53
2023-02-06T07:54:07.981Z,17.90
2023-02-06T07:56:34.984Z,12.30
2023-02-06T07:59:02.212Z,28.70
2023-02-06T08:01:29.478Z,19.73
2023-02-06T08:03:58.027Z,22.03
2023-02-06T08:06:27.534Z,11.97
2023-02-06T08:08:56.002Z,14.13
2023-02-06T08:11:23.981Z,9.00
2023-02-06T08:13:51.391Z,7.80
2023-02-06T08:16:21.575Z,7.10
2023-02-06T08:18:49.124Z,6.07
2023-02-06T08:21:20.371Z,9.50
2023-02-06T08:23:48.009Z,10.27
2023-02-06T08:26:18.189Z,10.43
2023-02-06T08:28:48.327Z,7.47
2023-02-06T08:31:18.661Z,4.72
2023-02-06T08:33:46.372Z,6.20
2023-02-06T08:36:15.155Z,4.57
2023-02-06T08:38:44.088Z,5.75
2023-02-06T08:41:19.794Z,7.10
2023-02-06T08:43:47.910Z,8.40
2023-02-06T08:46:17.630Z,6.85
2023-02-06T08:48:45.356Z,7.90
2023-02-06T08:51:13.446Z,6.03
2023-02-06T08:53:40.477Z,4.72
2023-02-06T08:56:12.348Z,5.07
2023-02-06T08:58:40.171Z,5.78
2023-02-06T09:01:07.761Z,5.03
2023-02-06T09:06:29.539Z,5.93
2023-02-06T09:08:57.483Z,6.70
2023-02-06T09:11:27.099Z,8.88
2023-02-06T09:13:56.503Z,5.15
2023-02-06T09:16:24.444Z,4.45
2023-02-06T09:18:54.114Z,7.05
2023-02-06T09:21:25.161Z,7.00
2023-02-06T09:23:57.182Z,5.05
2023-02-06T09:26:28.515Z,5.95
2023-02-06T09:28:58.279Z,6.53
2023-02-06T09:31:26.896Z,6.50
2023-02-06T09:33:54.537Z,5.22
2023-02-06T09:36:22.094Z,5.20
2023-02-06T09:38:53.158Z,7.80
2023-02-06T09:41:30.419Z,4.63
2023-02-06T09:44:04.794Z,6.28
2023-02-06T09:46:35.226Z,5.22
2023-02-06T09:49:12.485Z,5.88
2023-02-06T09:52:06.502Z,5.13
2023-02-06T09:54:47.669Z,6.82
2023-02-06T09:57:27.600Z,6.22
2023-02-06T09:59:59.983Z,6.55
2023-02-06T10:05:24.006Z,4.50
2023-02-06T10:08:11.151Z,5.13
2023-02-06T10:10:45.340Z,4.60
2023-02-06T10:13:22.336Z,5.85
2023-02-06T10:15:55.056Z,6.22
2023-02-06T10:18:32.521Z,6.47
2023-02-06T10:21:10.163Z,4.55
2023-02-06T10:23:46.607Z,4.78
2023-02-06T10:26:17.103Z,4.85
2023-02-06T10:28:50.446Z,5.18
2023-02-06T10:32:01.847Z,6.57
2023-02-06T10:34:48.711Z,5.90
2023-02-06T10:37:46.293Z,7.28
2023-02-06T10:40:37.424Z,8.68
2023-02-06T10:43:21.317Z,21.13
2023-02-06T10:46:00.769Z,10.02
2023-02-06T10:48:36.568Z,8.52
2023-02-06T10:51:17.729Z,5.50
2023-02-06T10:53:50.337Z,6.05
2023-02-06T10:56:22.213Z,5.40
2023-02-06T10:59:01.029Z,7.13
2023-02-06T11:01:35.628Z,5.88
2023-02-06T11:04:11.920Z,5.97
2023-02-06T11:06:40.948Z,5.95
2023-02-06T11:09:09.547Z,5.93
2023-02-06T11:11:39.978Z,16.38
2023-02-06T11:14:15.191Z,10.75
2023-02-06T11:16:46.031Z,7.20
2023-02-06T11:19:20.069Z,7.47
2023-02-06T11:21:55.270Z,8.15
2023-02-06T11:24:25.037Z,7.28
2023-02-06T11:26:57.458Z,9.05
2023-02-06T11:29:32.116Z,7.03
2023-02-06T11:32:03.975Z,7.45
2023-02-06T11:34:33.965Z,9.45
2023-02-06T11:37:04.154Z,8.50
2023-02-06T11:39:34.765Z,10.85
2023-02-06T11:42:05.050Z,8.23
2023-02-06T11:44:39.918Z,10.80
2023-02-06T11:47:32.248Z,6.47
2023-02-06T11:50:27.469Z,8.18
2023-02-06T11:53:10.040Z,9.00
2023-02-06T11:58:21.153Z,10.00
2023-02-06T12:01:01.606Z,8.43
2023-02-06T12:03:58.879Z,6.82
2023-02-06T12:06:31.816Z,9.02
2023-02-06T12:09:01.809Z,8.63
2023-02-06T12:11:35.036Z,6.15
2023-02-06T12:14:10.587Z,8.10
2023-02-06T12:16:43.163Z,7.97
2023-02-06T12:19:18.318Z,10.70
2023-02-06T12:21:50.036Z,11.88
2023-02-06T12:24:28.568Z,8.05
2023-02-06T12:26:59.227Z,8.93
2023-02-06T12:29:33.205Z,9.55
2023-02-06T12:32:06.772Z,8.48
2023-02-06T12:34:48.968Z,12.05
2023-02-06T12:37:25.308Z,10.60
2023-02-06T12:39:52.819Z,15.65
2023-02-06T12:45:42.639Z,8.13
2023-02-06T12:48:18.713Z,9.23
2023-02-06T12:51:04.670Z,10.75
2023-02-06T12:53:37.729Z,9.57
2023-02-06T12:56:15.163Z,10.40
2023-02-06T12:59:01.050Z,11.50
2023-02-06T13:01:49.126Z,11.50
2023-02-06T13:04:20.132Z,10.68
2023-02-06T13:07:03.592Z,10.23
2023-02-06T13:09:37.581Z,10.43
2023-02-06T13:12:12.939Z,7.47
2023-02-06T13:14:47.600Z,8.98
2023-02-06T13:17:19.504Z,10.43
2023-02-06T13:20:07.419Z,10.20
2023-02-06T13:22:47.129Z,7.90
2023-02-06T13:25:50.724Z,9.68
2023-02-06T13:29:21.348Z,9.30
2023-02-06T13:31:48.408Z,10.18
2023-02-06T13:34:18.048Z,9.18
2023-02-06T13:36:52.237Z,6.30
2023-02-06T13:39:32.977Z,6.32
2023-02-06T13:42:29.796Z,8.30
2023-02-06T13:44:59.494Z,10.95
2023-02-06T13:48:11.947Z,8.60
2023-02-06T13:51:22.670Z,8.82
2023-02-06T13:54:33.765Z,11.20
2023-02-06T13:57:27.954Z,9.20
2023-02-06T14:00:01.404Z,8.40
2023-02-06T14:02:37.171Z,11.40
2023-02-06T14:05:10.994Z,7.50
2023-02-06T14:08:01.644Z,10.48
2023-02-06T14:11:06.059Z,10.65
2023-02-06T14:14:10.161Z,7.80
2023-02-06T14:16:49.392Z,9.77
2023-02-06T14:19:30.101Z,6.90
2023-02-06T14:22:10.545Z,9.40
2023-02-06T14:25:02.545Z,9.95
2023-02-06T14:27:47.397Z,5.60
2023-02-06T14:30:31.885Z,6.65
2023-02-06T14:33:48.818Z,6.47
2023-02-06T14:36:43.229Z,6.60
2023-02-06T14:39:41.255Z,6.93
2023-02-06T14:42:16.605Z,8.77
2023-02-06T14:44:47.823Z,7.82
2023-02-06T14:47:22.714Z,9.87
2023-02-06T14:49:50.774Z,7.90
2023-02-06T14:52:22.626Z,6.25
2023-02-06T14:54:50.248Z,6.25
2023-02-06T14:57:23.341Z,7.50
2023-02-06T14:59:57.165Z,6.13
2023-02-06T15:02:29.708Z,9.18
2023-02-06T15:04:58.573Z,9.40
2023-02-06T15:07:31.091Z,8.60
2023-02-06T15:10:04.363Z,7.97
2023-02-06T15:12:31.703Z,8.88
2023-02-06T15:15:02.531Z,10.25
2023-02-06T15:17:32.585Z,9.15
2023-02-06T15:20:24.174Z,7.57
2023-02-06T15:22:52.060Z,9.07
2023-02-06T15:25:36.062Z,10.00
2023-02-06T15:31:01.451Z,5.57
2023-02-06T15:33:34.103Z,9.80
2023-02-06T15:36:04.143Z,6.35
2023-02-06T15:38:33.779Z,5.53
2023-02-06T15:41:06.247Z,6.72
2023-02-06T15:43:34.860Z,9.27
2023-02-06T15:46:05.293Z,8.57
2023-02-06T15:48:37.914Z,13.30
2023-02-06T15:51:21.108Z,8.55
2023-02-06T15:53:51.301Z,8.15
2023-02-06T15:56:24.676Z,8.60
2023-02-06T15:58:57.281Z,8.55
2023-02-06T16:01:26.240Z,10.40
2023-02-06T16:04:06.068Z,8.35
2023-02-06T16:06:33.134Z,7.10
2023-02-06T16:09:02.629Z,8.48
2023-02-06T16:11:35.036Z,7.88
2023-02-06T16:16:29.422Z,8.88
2023-02-06T16:18:58.844Z,6.93
2023-02-06T16:21:30.276Z,9.07
2023-02-06T16:24:14.722Z,7.78
2023-02-06T16:26:45.124Z,9.52
2023-02-06T16:29:25.295Z,9.60
2023-02-06T16:32:01.254Z,9.15
2023-02-06T16:34:38.520Z,10.30
2023-02-06T16:37:10.030Z,12.65
2023-02-06T16:39:37.218Z,9.23
2023-02-06T16:42:04.626Z,11.40
2023-02-06T16:44:44.032Z,8.38
2023-02-06T16:47:15.628Z,11.95
2023-02-06T16:49:45.607Z,15.40
2023-02-06T16:52:21.392Z,10.57
2023-02-06T16:54:48.867Z,11.43
2023-02-06T16:57:24.441Z,9.85
2023-02-06T16:59:51.804Z,12.05
2023-02-06T17:02:19.015Z,10.27
2023-02-06T17:04:47.890Z,12.85
2023-02-06T17:07:19.232Z,12.10
2023-02-06T17:09:48.362Z,11.63
2023-02-06T17:12:18.458Z,14.77
2023-02-06T17:14:46.336Z,14.60
2023-02-06T17:17:17.814Z,13.75
2023-02-06T17:19:47.574Z,13.40
2023-02-06T17:22:15.258Z,13.05
2023-02-06T17:24:43.272Z,12.70
2023-02-06T17:27:16.218Z,14.75
2023-02-06T17:29:45.017Z,16.00
2023-02-06T17:32:13.309Z,15.43
2023-02-06T17:34:40.692Z,16.75
2023-02-06T17:37:13.087Z,13.32
2023-02-06T17:42:06.738Z,12.07
2023-02-06T17:44:33.863Z,17.50
2023-02-06T17:47:00.676Z,13.50
2023-02-06T17:49:27.901Z,13.35
2023-02-06T17:51:54.942Z,15.52
2023-02-06T17:54:23.314Z,16.45
2023-02-06T17:56:50.201Z,19.38
2023-02-06T17:59:17.414Z,15.93
2023-02-06T18:01:45.167Z,13.95
2023-02-06T18:04:13.477Z,15.48
2023-02-06T18:06:40.353Z,15.52
2023-02-06T18:09:07.592Z,12.45
2023-02-06T18:11:36.033Z,13.55
2023-02-06T18:14:02.978Z,13.57
2023-02-06T18:16:30.369Z,13.02
2023-02-06T18:18:57.506Z,11.23
2023-02-06T18:21:25.064Z,16.10
2023-02-06T18:23:53.119Z,17.13
2023-02-06T18:26:20.564Z,15.75
2023-02-06T18:28:48.867Z,15.38
2023-02-06T18:31:26.223Z,14.68
2023-02-06T18:33:54.486Z,11.52
2023-02-06T18:36:23.752Z,13.88
2023-02-06T18:38:50.868Z,13.93
2023-02-06T18:41:20.031Z,12.63
2023-02-06T18:43:48.486Z,12.57
2023-02-06T18:46:15.584Z,10.75
2023-02-06T18:48:42.637Z,12.38
2023-02-06T18:51:09.464Z,11.82
2023-02-06T18:53:36.374Z,12.05
2023-02-06T18:56:03.408Z,13.57
2023-02-06T18:58:30.517Z,11.70
2023-02-06T19:00:58.764Z,8.80
2023-02-06T19:03:25.787Z,10.70
2023-02-06T19:05:52.969Z,9.93
2023-02-06T19:08:20.263Z,11.20
2023-02-06T19:10:47.409Z,11.33
2023-02-06T19:13:14.339Z,10.00
2023-02-06T19:15:41.445Z,15.50
2023-02-06T19:18:09.794Z,17.73
2023-02-06T19:20:40.773Z,23.87
2023-02-06T19:23:07.612Z,20.77
2023-02-06T19:25:40.994Z,23.93
2023-02-06T19:31:00.435Z,26.47
2023-02-06T19:33:31.639Z,25.37
2023-02-06T19:35:59.517Z,27.67
2023-02-06T19:38:26.584Z,25.13
2023-02-06T19:40:53.757Z,29.40
2023-02-06T19:43:20.841Z,28.33
2023-02-06T19:45:47.893Z,33.13
2023-02-06T19:48:14.901Z,27.97
2023-02-06T19:50:43.132Z,28.30
2023-02-06T19:53:10.419Z,27.53
2023-02-06T19:55:37.619Z,32.43
2023-02-06T19:58:04.633Z,29.67
2023-02-06T20:00:31.621Z,32.30
2023-02-06T20:02:58.773Z,31.10
2023-02-06T20:05:25.579Z,36.83
2023-02-06T20:07:54.003Z,41.13
2023-02-06T20:10:21.073Z,38.63
2023-02-06T20:12:48.216Z,36.30
2023-02-06T20:15:15.334Z,34.87
2023-02-06T20:17:42.593Z,31.87
2023-02-06T20:20:11.620Z,33.73
2023-02-06T20:22:38.534Z,34.13
2023-02-06T20:25:15.161Z,35.40
2023-02-06T20:27:42.368Z,30.50
2023-02-06T20:30:11.067Z,24.23
2023-02-06T20:32:38.227Z,26.77
2023-02-06T20:35:06.293Z,23.30
2023-02-06T20:37:33.234Z,21.37
2023-02-06T20:40:00.754Z,21.33
2023-02-06T20:42:29.027Z,19.50
2023-02-06T20:44:56.404Z,20.03
2023-02-06T20:47:23.886Z,22.93
2023-02-06T20:49:51.112Z,18.57
2023-02-06T20:52:18.013Z,16.87
2023-02-06T20:54:45.065Z,17.70
2023-02-06T20:57:12.126Z,17.17
2023-02-06T20:59:40.317Z,16.07
2023-02-06T21:02:09.689Z,17.80
2023-02-06T21:04:36.823Z,18.53
2023-02-06T21:07:03.751Z,13.00
2023-02-06T21:09:30.835Z,12.60
2023-02-06T21:11:57.956Z,15.53
2023-02-06T21:14:24.931Z,14.90
2023-02-06T21:16:53.425Z,14.43
2023-02-06T21:19:21.089Z,13.30
2023-02-06T21:21:48.922Z,15.67
2023-02-06T21:24:17.199Z,13.53
2023-02-06T21:26:45.198Z,19.63
2023-02-06T21:29:14.330Z,14.87
2023-02-06T21:31:41.873Z,18.63
2023-02-06T21:34:16.471Z,16.50
2023-02-06T21:36:44.818Z,18.93
2023-02-06T21:39:16.869Z,13.97
2023-02-06T21:41:44.928Z,13.60
2023-02-06T21:44:11.786Z,12.27
2023-02-06T21:46:38.682Z,17.43
2023-02-06T21:49:06.226Z,13.80
2023-02-06T21:51:34.679Z,11.80
2023-02-06T21:54:04.792Z,9.17
2023-02-06T21:56:31.937Z,9.73
2023-02-06T21:58:59.228Z,10.37
2023-02-06T22:01:30.240Z,10.47
2023-02-06T22:03:57.768Z,10.37
2023-02-06T22:06:25.390Z,13.23
2023-02-06T22:08:55.725Z,14.17
2023-02-06T22:11:26.350Z,18.73
2023-02-06T22:13:58.268Z,22.00
2023-02-06T22:16:26.485Z,19.88
2023-02-06T22:18:54.384Z,15.30
2023-02-06T22:21:24.238Z,12.47
2023-02-06T22:23:56.164Z,12.27
2023-02-06T22:26:23.350Z,11.95
2023-02-06T22:28:51.199Z,12.30
2023-02-06T22:31:23.422Z,11.40
2023-02-06T22:36:22.252Z,9.40
2023-02-06T22:38:57.362Z,9.63
2023-02-06T22:41:25.930Z,9.93
2023-02-06T22:43:53.241Z,7.97
2023-02-06T22:46:24.496Z,9.80
2023-02-06T22:48:53.220Z,10.83
2023-02-06T22:51:21.589Z,13.90
2023-02-06T22:53:49.446Z,9.63
2023-02-06T22:56:21.001Z,10.77
2023-02-06T22:58:49.182Z,13.13
2023-02-06T23:01:19.347Z,10.77
2023-02-06T23:04:15.166Z,9.03
2023-02-06T23:06:43.339Z,9.57
2023-02-06T23:09:14.936Z,10.67
2023-02-06T23:11:44.511Z,10.57
2023-02-06T23:14:14.420Z,8.00
2023-02-06T23:16:42.480Z,11.23
2023-02-06T23:19:12.721Z,9.87
2023-02-06T23:21:42.027Z,11.03
2023-02-06T23:24:10.536Z,9.93
2023-02-06T23:26:40.522Z,10.97
2023-02-06T23:29:11.800Z,9.67
2023-02-06T23:31:39.006Z,9.90
2023-02-06T23:34:06.068Z,10.20
2023-02-06T23:36:33.055Z,12.17
2023-02-06T23:39:01.181Z,13.30
2023-02-06T23:41:29.659Z,14.97
2023-02-06T23:43:58.921Z,11.97
2023-02-06T23:46:30.789Z,11.33
2023-02-06T23:48:58.181Z,8.77
2023-02-06T23:51:26.263Z,10.83
2023-02-06T23:53:53.552Z,13.20
2023-02-06T23:56:25.020Z,11.67
2023-02-06T23:58:54.165Z,10.88
